sensor_id;sensor_type;location;lat;lon;timestamp;P1;durP1;ratioP1;P2;durP2;ratioP2
11427;SDS011;5770;44.504;11.346;2023-03-23T00:00:59;6.68;;;4.40;;
11427;SDS011;5770;44.504;11.346;2023-03-23T00:03:29;5.47;;;4.10;;
11427;SDS011;5770;44.504;11.346;2023-03-23T00:05:59;5.68;;;4.50;;
11427;SDS011;5770;44.504;11.346;2023-03-23T00:08:30;5.97;;;4.30;;
11427;SDS011;5770;44.504;11.346;2023-03-23T00:10:58;5.28;;;4.63;;
11427;SDS011;5770;44.504;11.346;2023-03-23T00:13:26;5.93;;;4.20;;
11427;SDS011;5770;44.504;11.346;2023-03-23T00:15:54;4.55;;;3.90;;
11427;SDS011;5770;44.504;11.346;2023-03-23T00:18:22;5.20;;;4.40;;
11427;SDS011;5770;44.504;11.346;2023-03-23T00:20:50;5.28;;;4.20;;
11427;SDS011;5770;44.504;11.346;2023-03-23T00:23:19;7.57;;;3.90;;
11427;SDS011;5770;44.504;11.346;2023-03-23T00:25:48;5.30;;;4.70;;
11427;SDS011;5770;44.504;11.346;2023-03-23T00:28:19;8.63;;;5.25;;
11427;SDS011;5770;44.504;11.346;2023-03-23T00:30:53;4.30;;;3.90;;
11427;SDS011;5770;44.504;11.346;2023-03-23T00:33:21;6.38;;;4.20;;
11427;SDS011;5770;44.504;11.346;2023-03-23T00:35:49;6.43;;;4.20;;
11427;SDS011;5770;44.504;11.346;2023-03-23T00:38:17;5.10;;;3.70;;
11427;SDS011;5770;44.504;11.346;2023-03-23T00:40:44;5.57;;;4.10;;
11427;SDS011;5770;44.504;11.346;2023-03-23T00:43:12;4.70;;;4.20;;
11427;SDS011;5770;44.504;11.346;2023-03-23T00:45:41;7.13;;;4.65;;
11427;SDS011;5770;44.504;11.346;2023-03-23T00:48:10;5.65;;;4.82;;
11427;SDS011;5770;44.504;11.346;2023-03-23T00:50:37;5.60;;;4.40;;
11427;SDS011;5770;44.504;11.346;2023-03-23T00:53:04;7.43;;;4.20;;
11427;SDS011;5770;44.504;11.346;2023-03-23T00:55:32;5.93;;;4.13;;
11427;SDS011;5770;44.504;11.346;2023-03-23T00:58:00;5.05;;;3.78;;
11427;SDS011;5770;44.504;11.346;2023-03-23T01:00:27;4.68;;;4.00;;
11427;SDS011;5770;44.504;11.346;2023-03-23T01:02:55;4.80;;;3.70;;
11427;SDS011;5770;44.504;11.346;2023-03-23T01:05:23;5.72;;;4.03;;
11427;SDS011;5770;44.504;11.346;2023-03-23T01:07:56;5.78;;;3.70;;
11427;SDS011;5770;44.504;11.346;2023-03-23T01:10:24;4.95;;;4.15;;
11427;SDS011;5770;44.504;11.346;2023-03-23T01:12:51;4.45;;;3.58;;
11427;SDS011;5770;44.504;11.346;2023-03-23T01:15:19;4.80;;;4.00;;
11427;SDS011;5770;44.504;11.346;2023-03-23T01:17:46;5.57;;;3.75;;
11427;SDS011;5770;44.504;11.346;2023-03-23T01:20:15;4.97;;;3.83;;
11427;SDS011;5770;44.504;11.346;2023-03-23T01:22:44;5.25;;;3.85;;
11427;SDS011;5770;44.504;11.346;2023-03-23T01:25:11;4.40;;;4.00;;
11427;SDS011;5770;44.504;11.346;2023-03-23T01:27:39;5.90;;;3.70;;
11427;SDS011;5770;44.504;11.346;2023-03-23T01:30:07;5.38;;;3.78;;
11427;SDS011;5770;44.504;11.346;2023-03-23T01:32:35;6.28;;;4.18;;
11427;SDS011;5770;44.504;11.346;2023-03-23T01:35:02;5.10;;;3.95;;
11427;SDS011;5770;44.504;11.346;2023-03-23T01:37:31;11.85;;;4.40;;
11427;SDS011;5770;44.504;11.346;2023-03-23T01:39:59;5.72;;;3.90;;
11427;SDS011;5770;44.504;11.346;2023-03-23T01:42:30;4.43;;;3.92;;
11427;SDS011;5770;44.504;11.346;2023-03-23T01:47:54;4.40;;;3.80;;
11427;SDS011;5770;44.504;11.346;2023-03-23T01:50:28;5.80;;;4.40;;
11427;SDS011;5770;44.504;11.346;2023-03-23T01:53:01;5.80;;;4.35;;
11427;SDS011;5770;44.504;11.346;2023-03-23T01:55:32;3.90;;;3.50;;
11427;SDS011;5770;44.504;11.346;2023-03-23T01:58:00;4.45;;;3.38;;
11427;SDS011;5770;44.504;11.346;2023-03-23T02:00:27;5.65;;;3.92;;
11427;SDS011;5770;44.504;11.346;2023-03-23T02:02:56;6.20;;;3.90;;
11427;SDS011;5770;44.504;11.346;2023-03-23T02:05:24;4.85;;;3.80;;
11427;SDS011;5770;44.504;11.346;2023-03-23T02:07:56;5.50;;;3.75;;
11427;SDS011;5770;44.504;11.346;2023-03-23T02:10:30;5.88;;;3.88;;
11427;SDS011;5770;44.504;11.346;2023-03-23T02:12:57;6.22;;;3.85;;
11427;SDS011;5770;44.504;11.346;2023-03-23T02:15:25;4.97;;;3.78;;
11427;SDS011;5770;44.504;11.346;2023-03-23T02:18:00;7.22;;;3.90;;
11427;SDS011;5770;44.504;11.346;2023-03-23T02:20:39;5.32;;;3.85;;
11427;SDS011;5770;44.504;11.346;2023-03-23T02:23:17;4.60;;;3.65;;
11427;SDS011;5770;44.504;11.346;2023-03-23T02:26:09;4.28;;;3.67;;
11427;SDS011;5770;44.504;11.346;2023-03-23T02:28:49;4.07;;;3.47;;
11427;SDS011;5770;44.504;11.346;2023-03-23T02:34:14;4.07;;;3.58;;
11427;SDS011;5770;44.504;11.346;2023-03-23T02:36:44;4.45;;;3.95;;
11427;SDS011;5770;44.504;11.346;2023-03-23T02:39:13;5.57;;;4.63;;
11427;SDS011;5770;44.504;11.346;2023-03-23T02:41:43;5.85;;;4.22;;
11427;SDS011;5770;44.504;11.346;2023-03-23T02:44:13;5.28;;;3.75;;
11427;SDS011;5770;44.504;11.346;2023-03-23T02:46:41;3.92;;;3.30;;
11427;SDS011;5770;44.504;11.346;2023-03-23T02:49:10;3.63;;;3.33;;
11427;SDS011;5770;44.504;11.346;2023-03-23T02:51:41;3.75;;;3.38;;
11427;SDS011;5770;44.504;11.346;2023-03-23T02:54:11;5.05;;;3.75;;
11427;SDS011;5770;44.504;11.346;2023-03-23T02:56:39;5.32;;;4.13;;
11427;SDS011;5770;44.504;11.346;2023-03-23T02:59:07;5.55;;;3.90;;
11427;SDS011;5770;44.504;11.346;2023-03-23T03:01:48;5.22;;;3.50;;
11427;SDS011;5770;44.504;11.346;2023-03-23T03:04:22;5.82;;;3.60;;
11427;SDS011;5770;44.504;11.346;2023-03-23T03:06:53;6.50;;;3.85;;
11427;SDS011;5770;44.504;11.346;2023-03-23T03:09:33;4.97;;;3.58;;
11427;SDS011;5770;44.504;11.346;2023-03-23T03:12:08;6.32;;;3.83;;
11427;SDS011;5770;44.504;11.346;2023-03-23T03:14:40;6.32;;;3.65;;
11427;SDS011;5770;44.504;11.346;2023-03-23T03:17:11;6.70;;;3.92;;
11427;SDS011;5770;44.504;11.346;2023-03-23T03:19:45;4.47;;;3.50;;
11427;SDS011;5770;44.504;11.346;2023-03-23T03:22:14;5.93;;;4.20;;
11427;SDS011;5770;44.504;11.346;2023-03-23T03:24:42;6.07;;;4.25;;
11427;SDS011;5770;44.504;11.346;2023-03-23T03:27:10;6.30;;;4.07;;
11427;SDS011;5770;44.504;11.346;2023-03-23T03:29:40;5.45;;;4.28;;
11427;SDS011;5770;44.504;11.346;2023-03-23T03:32:08;7.50;;;3.97;;
11427;SDS011;5770;44.504;11.346;2023-03-23T03:34:37;6.13;;;4.28;;
11427;SDS011;5770;44.504;11.346;2023-03-23T03:37:05;6.55;;;4.40;;
11427;SDS011;5770;44.504;11.346;2023-03-23T03:39:35;7.38;;;4.53;;
11427;SDS011;5770;44.504;11.346;2023-03-23T03:42:03;5.70;;;3.97;;
11427;SDS011;5770;44.504;11.346;2023-03-23T03:44:30;5.55;;;4.18;;
11427;SDS011;5770;44.504;11.346;2023-03-23T03:46:58;6.32;;;4.35;;
11427;SDS011;5770;44.504;11.346;2023-03-23T03:49:25;6.70;;;4.30;;
11427;SDS011;5770;44.504;11.346;2023-03-23T03:51:52;9.35;;;4.13;;
11427;SDS011;5770;44.504;11.346;2023-03-23T03:54:19;5.78;;;4.00;;
11427;SDS011;5770;44.504;11.346;2023-03-23T03:56:48;4.70;;;3.70;;
11427;SDS011;5770;44.504;11.346;2023-03-23T03:59:16;5.22;;;4.30;;
11427;SDS011;5770;44.504;11.346;2023-03-23T04:01:44;6.97;;;4.22;;
11427;SDS011;5770;44.504;11.346;2023-03-23T04:04:11;6.15;;;4.00;;
11427;SDS011;5770;44.504;11.346;2023-03-23T04:06:38;7.80;;;4.50;;
11427;SDS011;5770;44.504;11.346;2023-03-23T04:09:05;4.45;;;4.05;;
11427;SDS011;5770;44.504;11.346;2023-03-23T04:11:32;5.53;;;4.30;;
11427;SDS011;5770;44.504;11.346;2023-03-23T04:14:01;5.05;;;4.03;;
11427;SDS011;5770;44.504;11.346;2023-03-23T04:16:28;5.40;;;3.80;;
11427;SDS011;5770;44.504;11.346;2023-03-23T04:18:55;8.23;;;4.45;;
11427;SDS011;5770;44.504;11.346;2023-03-23T04:21:22;5.78;;;4.03;;
11427;SDS011;5770;44.504;11.346;2023-03-23T04:23:54;4.28;;;3.72;;
11427;SDS011;5770;44.504;11.346;2023-03-23T04:26:24;5.72;;;4.28;;
11427;SDS011;5770;44.504;11.346;2023-03-23T04:28:51;9.02;;;4.22;;
11427;SDS011;5770;44.504;11.346;2023-03-23T04:31:19;4.75;;;4.13;;
11427;SDS011;5770;44.504;11.346;2023-03-23T04:33:49;4.20;;;3.78;;
11427;SDS011;5770;44.504;11.346;2023-03-23T04:36:17;4.97;;;4.47;;
11427;SDS011;5770;44.504;11.346;2023-03-23T04:38:44;4.55;;;4.05;;
11427;SDS011;5770;44.504;11.346;2023-03-23T04:41:11;5.25;;;4.20;;
11427;SDS011;5770;44.504;11.346;2023-03-23T04:43:39;5.15;;;4.57;;
11427;SDS011;5770;44.504;11.346;2023-03-23T04:46:08;7.93;;;4.60;;
11427;SDS011;5770;44.504;11.346;2023-03-23T04:48:36;4.30;;;3.60;;
11427;SDS011;5770;44.504;11.346;2023-03-23T04:51:04;5.82;;;4.30;;
11427;SDS011;5770;44.504;11.346;2023-03-23T04:53:32;7.80;;;4.65;;
11427;SDS011;5770;44.504;11.346;2023-03-23T04:55:59;5.35;;;4.38;;
11427;SDS011;5770;44.504;11.346;2023-03-23T04:58:27;5.10;;;3.88;;
11427;SDS011;5770;44.504;11.346;2023-03-23T05:00:58;6.35;;;4.07;;
11427;SDS011;5770;44.504;11.346;2023-03-23T05:03:26;6.30;;;4.25;;
11427;SDS011;5770;44.504;11.346;2023-03-23T05:05:54;5.68;;;4.60;;
11427;SDS011;5770;44.504;11.346;2023-03-23T05:08:22;8.35;;;4.35;;
11427;SDS011;5770;44.504;11.346;2023-03-23T05:10:50;5.97;;;4.68;;
11427;SDS011;5770;44.504;11.346;2023-03-23T05:13:19;4.45;;;4.05;;
11427;SDS011;5770;44.504;11.346;2023-03-23T05:15:46;5.95;;;4.30;;
11427;SDS011;5770;44.504;11.346;2023-03-23T05:18:13;4.68;;;4.28;;
11427;SDS011;5770;44.504;11.346;2023-03-23T05:20:41;5.15;;;4.32;;
11427;SDS011;5770;44.504;11.346;2023-03-23T05:23:09;6.28;;;4.80;;
11427;SDS011;5770;44.504;11.346;2023-03-23T05:25:38;6.47;;;4.70;;
11427;SDS011;5770;44.504;11.346;2023-03-23T05:28:06;6.75;;;4.95;;
11427;SDS011;5770;44.504;11.346;2023-03-23T05:30:33;5.85;;;4.70;;
11427;SDS011;5770;44.504;11.346;2023-03-23T05:33:01;8.40;;;5.20;;
11427;SDS011;5770;44.504;11.346;2023-03-23T05:35:29;8.63;;;5.00;;
11427;SDS011;5770;44.504;11.346;2023-03-23T05:37:56;9.27;;;5.80;;
11427;SDS011;5770;44.504;11.346;2023-03-23T05:40:25;6.05;;;5.38;;
11427;SDS011;5770;44.504;11.346;2023-03-23T05:42:53;7.53;;;5.50;;
11427;SDS011;5770;44.504;11.346;2023-03-23T05:45:20;9.30;;;5.20;;
11427;SDS011;5770;44.504;11.346;2023-03-23T05:47:49;8.73;;;5.10;;
11427;SDS011;5770;44.504;11.346;2023-03-23T05:50:16;8.10;;;5.63;;
11427;SDS011;5770;44.504;11.346;2023-03-23T05:52:43;12.73;;;5.97;;
11427;SDS011;5770;44.504;11.346;2023-03-23T05:55:11;6.80;;;5.60;;
11427;SDS011;5770;44.504;11.346;2023-03-23T05:57:40;11.25;;;6.05;;
11427;SDS011;5770;44.504;11.346;2023-03-23T06:00:08;7.60;;;6.53;;
11427;SDS011;5770;44.504;11.346;2023-03-23T06:02:36;8.02;;;6.35;;
11427;SDS011;5770;44.504;11.346;2023-03-23T06:05:08;7.70;;;6.22;;
11427;SDS011;5770;44.504;11.346;2023-03-23T06:07:36;10.20;;;5.82;;
11427;SDS011;5770;44.504;11.346;2023-03-23T06:10:04;7.95;;;5.35;;
11427;SDS011;5770;44.504;11.346;2023-03-23T06:12:35;8.35;;;5.13;;
11427;SDS011;5770;44.504;11.346;2023-03-23T06:15:04;7.75;;;5.22;;
11427;SDS011;5770;44.504;11.346;2023-03-23T06:17:32;7.35;;;5.50;;
11427;SDS011;5770;44.504;11.346;2023-03-23T06:20:01;12.05;;;5.80;;
11427;SDS011;5770;44.504;11.346;2023-03-23T06:22:29;6.43;;;5.28;;
11427;SDS011;5770;44.504;11.346;2023-03-23T06:24:57;6.15;;;5.40;;
11427;SDS011;5770;44.504;11.346;2023-03-23T06:27:24;6.63;;;5.10;;
11427;SDS011;5770;44.504;11.346;2023-03-23T06:29:51;6.07;;;5.03;;
11427;SDS011;5770;44.504;11.346;2023-03-23T06:32:20;5.75;;;5.10;;
11427;SDS011;5770;44.504;11.346;2023-03-23T06:34:48;6.88;;;5.00;;
11427;SDS011;5770;44.504;11.346;2023-03-23T06:37:15;10.45;;;5.60;;
11427;SDS011;5770;44.504;11.346;2023-03-23T06:39:43;5.97;;;5.03;;
11427;SDS011;5770;44.504;11.346;2023-03-23T06:42:10;6.55;;;4.88;;
11427;SDS011;5770;44.504;11.346;2023-03-23T06:44:38;6.38;;;5.05;;
11427;SDS011;5770;44.504;11.346;2023-03-23T06:47:05;8.25;;;5.13;;
11427;SDS011;5770;44.504;11.346;2023-03-23T06:49:35;6.90;;;4.60;;
11427;SDS011;5770;44.504;11.346;2023-03-23T06:52:02;7.35;;;4.82;;
11427;SDS011;5770;44.504;11.346;2023-03-23T06:54:31;13.07;;;5.25;;
11427;SDS011;5770;44.504;11.346;2023-03-23T06:56:58;5.97;;;4.93;;
11427;SDS011;5770;44.504;11.346;2023-03-23T06:59:26;11.32;;;5.43;;
11427;SDS011;5770;44.504;11.346;2023-03-23T07:01:53;6.60;;;5.20;;
11427;SDS011;5770;44.504;11.346;2023-03-23T07:04:23;7.57;;;4.82;;
11427;SDS011;5770;44.504;11.346;2023-03-23T07:06:57;5.82;;;4.90;;
11427;SDS011;5770;44.504;11.346;2023-03-23T07:09:30;9.20;;;5.10;;
11427;SDS011;5770;44.504;11.346;2023-03-23T07:11:58;8.50;;;5.40;;
11427;SDS011;5770;44.504;11.346;2023-03-23T07:14:27;8.68;;;5.13;;
11427;SDS011;5770;44.504;11.346;2023-03-23T07:17:04;6.32;;;5.00;;
11427;SDS011;5770;44.504;11.346;2023-03-23T07:19:34;8.95;;;4.72;;
11427;SDS011;5770;44.504;11.346;2023-03-23T07:22:07;9.32;;;5.65;;
11427;SDS011;5770;44.504;11.346;2023-03-23T07:24:34;10.55;;;5.13;;
11427;SDS011;5770;44.504;11.346;2023-03-23T07:36:31;7.15;;;5.00;;
11427;SDS011;5770;44.504;11.346;2023-03-23T07:39:03;7.82;;;4.72;;
11427;SDS011;5770;44.504;11.346;2023-03-23T07:41:31;9.48;;;5.07;;
11427;SDS011;5770;44.504;11.346;2023-03-23T07:43:59;8.20;;;4.93;;
11427;SDS011;5770;44.504;11.346;2023-03-23T07:46:26;7.72;;;4.78;;
11427;SDS011;5770;44.504;11.346;2023-03-23T07:48:53;5.97;;;4.47;;
11427;SDS011;5770;44.504;11.346;2023-03-23T07:51:21;8.77;;;4.50;;
11427;SDS011;5770;44.504;11.346;2023-03-23T07:53:49;4.95;;;4.18;;
11427;SDS011;5770;44.504;11.346;2023-03-23T07:56:18;4.93;;;4.45;;
11427;SDS011;5770;44.504;11.346;2023-03-23T07:58:46;6.03;;;4.32;;
11427;SDS011;5770;44.504;11.346;2023-03-23T08:01:13;5.53;;;4.13;;
11427;SDS011;5770;44.504;11.346;2023-03-23T08:03:41;5.13;;;4.00;;
11427;SDS011;5770;44.504;11.346;2023-03-23T08:06:08;6.13;;;4.55;;
11427;SDS011;5770;44.504;11.346;2023-03-23T08:08:35;13.60;;;4.70;;
11427;SDS011;5770;44.504;11.346;2023-03-23T08:11:05;5.40;;;3.75;;
11427;SDS011;5770;44.504;11.346;2023-03-23T08:13:34;5.93;;;4.45;;
11427;SDS011;5770;44.504;11.346;2023-03-23T08:16:01;10.27;;;5.47;;
11427;SDS011;5770;44.504;11.346;2023-03-23T08:18:29;8.50;;;5.72;;
11427;SDS011;5770;44.504;11.346;2023-03-23T08:20:56;11.48;;;5.72;;
11427;SDS011;5770;44.504;11.346;2023-03-23T08:23:23;7.78;;;5.72;;
11427;SDS011;5770;44.504;11.346;2023-03-23T08:25:51;19.73;;;9.23;;
11427;SDS011;5770;44.504;11.346;2023-03-23T08:28:18;13.32;;;6.65;;
11427;SDS011;5770;44.504;11.346;2023-03-23T08:30:47;9.75;;;6.05;;
11427;SDS011;5770;44.504;11.346;2023-03-23T08:33:14;12.57;;;6.18;;
11427;SDS011;5770;44.504;11.346;2023-03-23T08:35:42;13.63;;;8.00;;
11427;SDS011;5770;44.504;11.346;2023-03-23T08:38:10;14.32;;;9.15;;
11427;SDS011;5770;44.504;11.346;2023-03-23T08:40:37;15.25;;;9.48;;
11427;SDS011;5770;44.504;11.346;2023-03-23T08:43:05;13.77;;;9.73;;
11427;SDS011;5770;44.504;11.346;2023-03-23T08:45:32;13.43;;;9.48;;
11427;SDS011;5770;44.504;11.346;2023-03-23T08:48:01;13.57;;;9.80;;
11427;SDS011;5770;44.504;11.346;2023-03-23T08:50:29;14.52;;;9.30;;
11427;SDS011;5770;44.504;11.346;2023-03-23T08:52:56;21.60;;;10.30;;
11427;SDS011;5770;44.504;11.346;2023-03-23T08:55:24;13.27;;;8.05;;
11427;SDS011;5770;44.504;11.346;2023-03-23T08:57:51;11.55;;;8.20;;
11427;SDS011;5770;44.504;11.346;2023-03-23T09:00:19;11.48;;;8.50;;
11427;SDS011;5770;44.504;11.346;2023-03-23T09:02:50;12.68;;;8.23;;
11427;SDS011;5770;44.504;11.346;2023-03-23T09:05:20;13.00;;;8.15;;
11427;SDS011;5770;44.504;11.346;2023-03-23T09:07:53;16.02;;;9.52;;
11427;SDS011;5770;44.504;11.346;2023-03-23T09:10:23;13.40;;;8.85;;
11427;SDS011;5770;44.504;11.346;2023-03-23T09:12:51;13.18;;;8.75;;
11427;SDS011;5770;44.504;11.346;2023-03-23T09:15:18;14.73;;;8.57;;
11427;SDS011;5770;44.504;11.346;2023-03-23T09:17:46;12.73;;;8.25;;
11427;SDS011;5770;44.504;11.346;2023-03-23T09:20:16;11.55;;;7.93;;
11427;SDS011;5770;44.504;11.346;2023-03-23T09:22:50;16.13;;;8.63;;
11427;SDS011;5770;44.504;11.346;2023-03-23T09:25:19;17.17;;;8.50;;
11427;SDS011;5770;44.504;11.346;2023-03-23T09:27:48;14.95;;;9.05;;
11427;SDS011;5770;44.504;11.346;2023-03-23T09:30:18;14.13;;;8.95;;
11427;SDS011;5770;44.504;11.346;2023-03-23T09:32:46;11.93;;;8.80;;
11427;SDS011;5770;44.504;11.346;2023-03-23T09:35:14;18.40;;;10.07;;
11427;SDS011;5770;44.504;11.346;2023-03-23T09:37:42;13.00;;;8.30;;
11427;SDS011;5770;44.504;11.346;2023-03-23T09:40:13;14.60;;;8.75;;
11427;SDS011;5770;44.504;11.346;2023-03-23T09:45:35;12.00;;;7.93;;
11427;SDS011;5770;44.504;11.346;2023-03-23T09:50:50;11.23;;;7.55;;
11427;SDS011;5770;44.504;11.346;2023-03-23T09:53:20;12.02;;;7.30;;
11427;SDS011;5770;44.504;11.346;2023-03-23T09:55:52;10.45;;;7.25;;
11427;SDS011;5770;44.504;11.346;2023-03-23T09:58:21;9.23;;;5.97;;
11427;SDS011;5770;44.504;11.346;2023-03-23T10:00:55;12.88;;;7.20;;
11427;SDS011;5770;44.504;11.346;2023-03-23T10:03:25;11.45;;;6.93;;
11427;SDS011;5770;44.504;11.346;2023-03-23T10:05:54;10.93;;;6.90;;
11427;SDS011;5770;44.504;11.346;2023-03-23T10:08:22;10.82;;;6.72;;
11427;SDS011;5770;44.504;11.346;2023-03-23T10:10:56;10.05;;;6.65;;
11427;SDS011;5770;44.504;11.346;2023-03-23T10:13:30;11.63;;;6.80;;
11427;SDS011;5770;44.504;11.346;2023-03-23T10:16:12;11.10;;;6.55;;
11427;SDS011;5770;44.504;11.346;2023-03-23T10:18:41;11.30;;;6.95;;
11427;SDS011;5770;44.504;11.346;2023-03-23T10:21:11;9.75;;;6.30;;
11427;SDS011;5770;44.504;11.346;2023-03-23T10:23:44;9.80;;;6.50;;
11427;SDS011;5770;44.504;11.346;2023-03-23T10:26:28;13.65;;;6.40;;
11427;SDS011;5770;44.504;11.346;2023-03-23T10:28:56;9.18;;;6.47;;
11427;SDS011;5770;44.504;11.346;2023-03-23T10:31:27;13.05;;;6.57;;
11427;SDS011;5770;44.504;11.346;2023-03-23T10:33:56;11.60;;;6.60;;
11427;SDS011;5770;44.504;11.346;2023-03-23T10:36:25;13.68;;;7.32;;
11427;SDS011;5770;44.504;11.346;2023-03-23T10:38:56;12.68;;;7.80;;
11427;SDS011;5770;44.504;11.346;2023-03-23T10:41:27;15.35;;;8.02;;
11427;SDS011;5770;44.504;11.346;2023-03-23T10:43:55;13.70;;;7.82;;
11427;SDS011;5770;44.504;11.346;2023-03-23T10:46:26;18.73;;;9.07;;
11427;SDS011;5770;44.504;11.346;2023-03-23T10:48:54;13.55;;;8.20;;
11427;SDS011;5770;44.504;11.346;2023-03-23T10:51:23;15.77;;;8.98;;
11427;SDS011;5770;44.504;11.346;2023-03-23T10:53:56;11.25;;;7.53;;
11427;SDS011;5770;44.504;11.346;2023-03-23T10:56:24;14.48;;;9.15;;
11427;SDS011;5770;44.504;11.346;2023-03-23T10:58:53;13.48;;;8.50;;
11427;SDS011;5770;44.504;11.346;2023-03-23T11:01:28;16.02;;;9.43;;
11427;SDS011;5770;44.504;11.346;2023-03-23T11:03:56;17.90;;;10.18;;
11427;SDS011;5770;44.504;11.346;2023-03-23T11:06:26;16.58;;;9.45;;
11427;SDS011;5770;44.504;11.346;2023-03-23T11:08:54;16.65;;;10.40;;
11427;SDS011;5770;44.504;11.346;2023-03-23T11:11:25;16.20;;;9.73;;
11427;SDS011;5770;44.504;11.346;2023-03-23T11:13:59;19.50;;;10.57;;
11427;SDS011;5770;44.504;11.346;2023-03-23T11:16:28;15.45;;;9.45;;
11427;SDS011;5770;44.504;11.346;2023-03-23T11:18:57;18.10;;;9.43;;
11427;SDS011;5770;44.504;11.346;2023-03-23T11:21:25;17.38;;;10.55;;
11427;SDS011;5770;44.504;11.346;2023-03-23T11:23:54;16.15;;;9.95;;
11427;SDS011;5770;44.504;11.346;2023-03-23T11:26:24;16.98;;;10.40;;
11427;SDS011;5770;44.504;11.346;2023-03-23T11:28:56;18.13;;;11.23;;
11427;SDS011;5770;44.504;11.346;2023-03-23T11:31:27;16.50;;;11.23;;
11427;SDS011;5770;44.504;11.346;2023-03-23T11:33:57;17.95;;;10.30;;
11427;SDS011;5770;44.504;11.346;2023-03-23T11:36:31;18.90;;;11.68;;
11427;SDS011;5770;44.504;11.346;2023-03-23T11:39:01;20.00;;;10.85;;
11427;SDS011;5770;44.504;11.346;2023-03-23T11:41:32;20.10;;;11.35;;
11427;SDS011;5770;44.504;11.346;2023-03-23T11:44:08;18.23;;;11.13;;
11427;SDS011;5770;44.504;11.346;2023-03-23T11:46:39;15.50;;;10.52;;
11427;SDS011;5770;44.504;11.346;2023-03-23T11:49:09;18.65;;;10.68;;
11427;SDS011;5770;44.504;11.346;2023-03-23T11:51:38;15.48;;;10.07;;
11427;SDS011;5770;44.504;11.346;2023-03-23T11:54:10;16.65;;;11.18;;
11427;SDS011;5770;44.504;11.346;2023-03-23T11:56:41;18.70;;;10.65;;
11427;SDS011;5770;44.504;11.346;2023-03-23T11:59:10;18.63;;;9.93;;
11427;SDS011;5770;44.504;11.346;2023-03-23T12:01:46;17.23;;;9.30;;
11427;SDS011;5770;44.504;11.346;2023-03-23T12:04:24;16.95;;;9.98;;
11427;SDS011;5770;44.504;11.346;2023-03-23T12:06:54;16.92;;;9.50;;
11427;SDS011;5770;44.504;11.346;2023-03-23T12:09:31;17.00;;;9.38;;
11427;SDS011;5770;44.504;11.346;2023-03-23T12:12:10;22.77;;;11.25;;
11427;SDS011;5770;44.504;11.346;2023-03-23T12:14:47;16.65;;;9.95;;
11427;SDS011;5770;44.504;11.346;2023-03-23T12:17:23;15.35;;;9.05;;
11427;SDS011;5770;44.504;11.346;2023-03-23T12:20:08;16.83;;;10.50;;
11427;SDS011;5770;44.504;11.346;2023-03-23T12:22:46;18.40;;;10.50;;
11427;SDS011;5770;44.504;11.346;2023-03-23T12:25:42;18.30;;;10.60;;
11427;SDS011;5770;44.504;11.346;2023-03-23T12:31:02;20.45;;;11.27;;
11427;SDS011;5770;44.504;11.346;2023-03-23T12:33:39;18.23;;;11.38;;
11427;SDS011;5770;44.504;11.346;2023-03-23T12:36:18;18.38;;;11.40;;
11427;SDS011;5770;44.504;11.346;2023-03-23T12:38:57;18.23;;;11.60;;
11427;SDS011;5770;44.504;11.346;2023-03-23T12:41:28;21.25;;;12.00;;
11427;SDS011;5770;44.504;11.346;2023-03-23T12:44:03;16.67;;;10.75;;
11427;SDS011;5770;44.504;11.346;2023-03-23T12:46:40;16.45;;;9.70;;
11427;SDS011;5770;44.504;11.346;2023-03-23T12:49:11;20.42;;;10.90;;
11427;SDS011;5770;44.504;11.346;2023-03-23T12:51:44;19.20;;;11.68;;
11427;SDS011;5770;44.504;11.346;2023-03-23T12:54:19;16.92;;;10.43;;
11427;SDS011;5770;44.504;11.346;2023-03-23T12:56:53;19.33;;;10.65;;
11427;SDS011;5770;44.504;11.346;2023-03-23T12:59:26;17.38;;;9.55;;
11427;SDS011;5770;44.504;11.346;2023-03-23T13:02:06;23.48;;;10.13;;
11427;SDS011;5770;44.504;11.346;2023-03-23T13:04:38;16.15;;;10.45;;
11427;SDS011;5770;44.504;11.346;2023-03-23T13:07:12;19.27;;;9.93;;
11427;SDS011;5770;44.504;11.346;2023-03-23T13:09:45;18.50;;;10.85;;
11427;SDS011;5770;44.504;11.346;2023-03-23T13:12:14;19.05;;;10.82;;
11427;SDS011;5770;44.504;11.346;2023-03-23T13:14:45;20.27;;;11.75;;
11427;SDS011;5770;44.504;11.346;2023-03-23T13:17:24;20.73;;;10.68;;
11427;SDS011;5770;44.504;11.346;2023-03-23T13:19:59;19.45;;;11.18;;
11427;SDS011;5770;44.504;11.346;2023-03-23T13:22:32;20.13;;;9.80;;
11427;SDS011;5770;44.504;11.346;2023-03-23T13:25:01;19.63;;;11.45;;
11427;SDS011;5770;44.504;11.346;2023-03-23T13:27:29;23.05;;;11.20;;
11427;SDS011;5770;44.504;11.346;2023-03-23T13:29:57;21.17;;;11.77;;
11427;SDS011;5770;44.504;11.346;2023-03-23T13:32:30;19.67;;;13.30;;
11427;SDS011;5770;44.504;11.346;2023-03-23T13:35:00;19.60;;;13.25;;
11427;SDS011;5770;44.504;11.346;2023-03-23T13:37:29;19.90;;;13.07;;
11427;SDS011;5770;44.504;11.346;2023-03-23T13:39:56;23.58;;;15.43;;
11427;SDS011;5770;44.504;11.346;2023-03-23T13:42:25;23.17;;;14.43;;
11427;SDS011;5770;44.504;11.346;2023-03-23T13:44:56;22.17;;;14.45;;
11427;SDS011;5770;44.504;11.346;2023-03-23T13:47:26;26.90;;;16.00;;
11427;SDS011;5770;44.504;11.346;2023-03-23T13:49:55;24.88;;;15.27;;
11427;SDS011;5770;44.504;11.346;2023-03-23T13:52:24;24.52;;;16.55;;
11427;SDS011;5770;44.504;11.346;2023-03-23T13:55:20;24.25;;;15.70;;
11427;SDS011;5770;44.504;11.346;2023-03-23T13:57:57;25.80;;;15.60;;
11427;SDS011;5770;44.504;11.346;2023-03-23T14:00:36;23.80;;;15.82;;
11427;SDS011;5770;44.504;11.346;2023-03-23T14:03:05;26.02;;;17.20;;
11427;SDS011;5770;44.504;11.346;2023-03-23T14:05:41;27.95;;;17.25;;
11427;SDS011;5770;44.504;11.346;2023-03-23T14:08:11;27.42;;;17.98;;
11427;SDS011;5770;44.504;11.346;2023-03-23T14:10:40;25.35;;;17.73;;
11427;SDS011;5770;44.504;11.346;2023-03-23T14:13:14;27.90;;;18.88;;
11427;SDS011;5770;44.504;11.346;2023-03-23T14:15:45;29.90;;;17.08;;
11427;SDS011;5770;44.504;11.346;2023-03-23T14:18:22;27.48;;;17.42;;
11427;SDS011;5770;44.504;11.346;2023-03-23T14:20:53;28.38;;;17.75;;
11427;SDS011;5770;44.504;11.346;2023-03-23T14:23:22;23.48;;;16.38;;
11427;SDS011;5770;44.504;11.346;2023-03-23T14:25:56;28.35;;;18.55;;
11427;SDS011;5770;44.504;11.346;2023-03-23T14:28:30;30.35;;;18.35;;
11427;SDS011;5770;44.504;11.346;2023-03-23T14:30:59;27.80;;;17.20;;
11427;SDS011;5770;44.504;11.346;2023-03-23T14:33:26;28.45;;;15.50;;
11427;SDS011;5770;44.504;11.346;2023-03-23T14:35:56;21.45;;;14.10;;
11427;SDS011;5770;44.504;11.346;2023-03-23T14:38:33;24.60;;;15.45;;
11427;SDS011;5770;44.504;11.346;2023-03-23T14:41:02;28.35;;;15.68;;
11427;SDS011;5770;44.504;11.346;2023-03-23T14:43:33;24.60;;;15.25;;
11427;SDS011;5770;44.504;11.346;2023-03-23T14:46:02;24.60;;;15.60;;
11427;SDS011;5770;44.504;11.346;2023-03-23T14:48:32;29.30;;;16.27;;
11427;SDS011;5770;44.504;11.346;2023-03-23T14:51:00;28.33;;;17.17;;
11427;SDS011;5770;44.504;11.346;2023-03-23T14:53:30;28.42;;;17.33;;
11427;SDS011;5770;44.504;11.346;2023-03-23T14:56:02;27.38;;;17.15;;
11427;SDS011;5770;44.504;11.346;2023-03-23T14:58:30;29.67;;;17.08;;
11427;SDS011;5770;44.504;11.346;2023-03-23T15:00:58;27.67;;;17.65;;
11427;SDS011;5770;44.504;11.346;2023-03-23T15:03:26;29.00;;;18.42;;
11427;SDS011;5770;44.504;11.346;2023-03-23T15:05:54;27.50;;;17.10;;
11427;SDS011;5770;44.504;11.346;2023-03-23T15:08:25;28.02;;;17.27;;
11427;SDS011;5770;44.504;11.346;2023-03-23T15:10:59;31.45;;;18.33;;
11427;SDS011;5770;44.504;11.346;2023-03-23T15:13:31;27.52;;;17.88;;
11427;SDS011;5770;44.504;11.346;2023-03-23T15:16:03;30.05;;;17.83;;
11427;SDS011;5770;44.504;11.346;2023-03-23T15:18:33;29.23;;;17.58;;